sensor_id;sensor_type;location;lat;lon;timestamp;P1;durP1;ratioP1;P2;durP2;ratioP2
40052;SDS011;25758;48.200;16.338;2023-04-29T00:00:47;14.27;;;10.73;;
40052;SDS011;25758;48.200;16.338;2023-04-29T00:03:13;13.05;;;9.25;;
40052;SDS011;25758;48.200;16.338;2023-04-29T00:05:38;13.88;;;9.35;;
40052;SDS011;25758;48.200;16.338;2023-04-29T00:08:04;15.93;;;8.82;;
40052;SDS011;25758;48.200;16.338;2023-04-29T00:10:30;13.73;;;9.55;;
40052;SDS011;25758;48.200;16.338;2023-04-29T00:12:56;12.75;;;9.55;;
40052;SDS011;25758;48.200;16.338;2023-04-29T00:15:21;13.77;;;9.75;;
40052;SDS011;25758;48.200;16.338;2023-04-29T00:17:47;13.02;;;8.90;;
40052;SDS011;25758;48.200;16.338;2023-04-29T00:20:13;19.00;;;11.10;;
40052;SDS011;25758;48.200;16.338;2023-04-29T00:22:39;11.85;;;9.43;;
40052;SDS011;25758;48.200;16.338;2023-04-29T00:25:04;16.08;;;10.27;;
40052;SDS011;25758;48.200;16.338;2023-04-29T00:27:31;13.18;;;9.20;;
40052;SDS011;25758;48.200;16.338;2023-04-29T00:29:57;13.10;;;9.70;;
40052;SDS011;25758;48.200;16.338;2023-04-29T00:32:23;14.32;;;9.18;;
40052;SDS011;25758;48.200;16.338;2023-04-29T00:34:48;13.63;;;9.98;;
40052;SDS011;25758;48.200;16.338;2023-04-29T00:37:15;14.98;;;10.10;;
40052;SDS011;25758;48.200;16.338;2023-04-29T00:39:41;12.23;;;10.00;;
40052;SDS011;25758;48.200;16.338;2023-04-29T00:42:06;12.30;;;9.00;;
40052;SDS011;25758;48.200;16.338;2023-04-29T00:44:33;11.55;;;9.50;;
40052;SDS011;25758;48.200;16.338;2023-04-29T00:46:59;13.65;;;9.80;;
40052;SDS011;25758;48.200;16.338;2023-04-29T00:49:24;11.38;;;8.77;;
40052;SDS011;25758;48.200;16.338;2023-04-29T00:51:51;12.98;;;9.15;;
40052;SDS011;25758;48.200;16.338;2023-04-29T00:54:18;15.38;;;9.40;;
40052;SDS011;25758;48.200;16.338;2023-04-29T00:56:45;12.43;;;9.23;;
40052;SDS011;25758;48.200;16.338;2023-04-29T00:59:11;16.00;;;9.93;;
40052;SDS011;25758;48.200;16.338;2023-04-29T01:01:39;14.02;;;11.32;;
40052;SDS011;25758;48.200;16.338;2023-04-29T01:04:05;14.25;;;10.23;;
40052;SDS011;25758;48.200;16.338;2023-04-29T01:11:54;13.40;;;11.13;;
40052;SDS011;25758;48.200;16.338;2023-04-29T01:14:32;15.52;;;11.38;;
40052;SDS011;25758;48.200;16.338;2023-04-29T01:17:01;15.25;;;13.23;;
40052;SDS011;25758;48.200;16.338;2023-04-29T01:19:43;15.65;;;11.55;;
40052;SDS011;25758;48.200;16.338;2023-04-29T01:22:16;16.05;;;12.30;;
40052;SDS011;25758;48.200;16.338;2023-04-29T01:24:43;18.00;;;11.52;;
40052;SDS011;25758;48.200;16.338;2023-04-29T01:37:47;20.48;;;16.25;;
40052;SDS011;25758;48.200;16.338;2023-04-29T01:40:35;22.70;;;16.23;;
40052;SDS011;25758;48.200;16.338;2023-04-29T01:43:07;23.85;;;16.65;;
40052;SDS011;25758;48.200;16.338;2023-04-29T01:45:37;24.08;;;15.93;;
40052;SDS011;25758;48.200;16.338;2023-04-29T01:48:05;22.77;;;17.92;;
40052;SDS011;25758;48.200;16.338;2023-04-29T01:50:31;27.15;;;18.80;;
40052;SDS011;25758;48.200;16.338;2023-04-29T01:52:57;24.15;;;19.40;;
40052;SDS011;25758;48.200;16.338;2023-04-29T01:55:23;25.67;;;17.58;;
40052;SDS011;25758;48.200;16.338;2023-04-29T01:57:48;29.05;;;18.65;;
40052;SDS011;25758;48.200;16.338;2023-04-29T02:00:14;25.45;;;18.77;;
40052;SDS011;25758;48.200;16.338;2023-04-29T02:02:40;22.88;;;17.10;;
40052;SDS011;25758;48.200;16.338;2023-04-29T02:05:05;26.08;;;19.73;;
40052;SDS011;25758;48.200;16.338;2023-04-29T02:07:31;27.52;;;19.33;;
40052;SDS011;25758;48.200;16.338;2023-04-29T02:09:57;27.25;;;19.15;;
40052;SDS011;25758;48.200;16.338;2023-04-29T02:12:22;22.90;;;17.08;;
40052;SDS011;25758;48.200;16.338;2023-04-29T02:14:51;25.95;;;19.50;;
40052;SDS011;25758;48.200;16.338;2023-04-29T02:17:17;21.83;;;18.80;;
40052;SDS011;25758;48.200;16.338;2023-04-29T02:19:43;27.75;;;20.25;;
40052;SDS011;25758;48.200;16.338;2023-04-29T02:22:08;26.38;;;19.33;;
40052;SDS011;25758;48.200;16.338;2023-04-29T02:24:36;25.27;;;20.38;;
40052;SDS011;25758;48.200;16.338;2023-04-29T02:27:02;23.48;;;18.48;;
40052;SDS011;25758;48.200;16.338;2023-04-29T02:29:30;26.08;;;17.98;;
40052;SDS011;25758;48.200;16.338;2023-04-29T02:31:56;22.58;;;17.40;;
40052;SDS011;25758;48.200;16.338;2023-04-29T02:34:21;21.00;;;17.35;;
40052;SDS011;25758;48.200;16.338;2023-04-29T02:36:48;24.80;;;17.48;;
40052;SDS011;25758;48.200;16.338;2023-04-29T02:39:14;22.60;;;16.30;;
40052;SDS011;25758;48.200;16.338;2023-04-29T02:41:40;23.30;;;16.13;;
40052;SDS011;25758;48.200;16.338;2023-04-29T02:44:06;23.48;;;17.65;;
40052;SDS011;25758;48.200;16.338;2023-04-29T02:46:32;22.10;;;17.67;;
40052;SDS011;25758;48.200;16.338;2023-04-29T02:49:00;23.63;;;16.98;;
40052;SDS011;25758;48.200;16.338;2023-04-29T02:51:26;22.38;;;16.85;;
40052;SDS011;25758;48.200;16.338;2023-04-29T02:53:52;23.83;;;17.92;;
40052;SDS011;25758;48.200;16.338;2023-04-29T02:56:17;24.48;;;18.58;;
40052;SDS011;25758;48.200;16.338;2023-04-29T02:58:43;22.73;;;17.92;;
40052;SDS011;25758;48.200;16.338;2023-04-29T03:01:09;27.73;;;19.83;;
40052;SDS011;25758;48.200;16.338;2023-04-29T03:03:35;25.58;;;19.33;;
40052;SDS011;25758;48.200;16.338;2023-04-29T03:06:00;26.10;;;19.35;;
40052;SDS011;25758;48.200;16.338;2023-04-29T03:08:26;26.05;;;19.23;;
40052;SDS011;25758;48.200;16.338;2023-04-29T03:10:52;28.75;;;20.17;;
40052;SDS011;25758;48.200;16.338;2023-04-29T03:13:17;26.45;;;19.45;;
40052;SDS011;25758;48.200;16.338;2023-04-29T03:15:43;28.00;;;19.75;;
40052;SDS011;25758;48.200;16.338;2023-04-29T03:18:09;27.40;;;21.23;;
40052;SDS011;25758;48.200;16.338;2023-04-29T03:20:34;27.48;;;21.20;;
40052;SDS011;25758;48.200;16.338;2023-04-29T03:23:00;32.05;;;23.52;;
40052;SDS011;25758;48.200;16.338;2023-04-29T03:25:26;30.55;;;21.20;;
40052;SDS011;25758;48.200;16.338;2023-04-29T03:27:52;30.75;;;22.33;;
40052;SDS011;25758;48.200;16.338;2023-04-29T03:30:18;34.40;;;23.48;;
40052;SDS011;25758;48.200;16.338;2023-04-29T03:32:44;32.25;;;23.10;;
40052;SDS011;25758;48.200;16.338;2023-04-29T03:35:09;32.13;;;24.10;;
40052;SDS011;25758;48.200;16.338;2023-04-29T03:37:38;34.42;;;24.67;;
40052;SDS011;25758;48.200;16.338;2023-04-29T03:40:04;35.50;;;25.55;;
40052;SDS011;25758;48.200;16.338;2023-04-29T03:42:30;35.10;;;25.42;;
40052;SDS011;25758;48.200;16.338;2023-04-29T03:44:56;38.65;;;26.40;;
40052;SDS011;25758;48.200;16.338;2023-04-29T03:47:22;37.40;;;26.90;;
40052;SDS011;25758;48.200;16.338;2023-04-29T03:49:47;35.28;;;25.40;;
40052;SDS011;25758;48.200;16.338;2023-04-29T03:52:13;27.98;;;22.45;;
40052;SDS011;25758;48.200;16.338;2023-04-29T03:54:40;34.35;;;25.13;;
40052;SDS011;25758;48.200;16.338;2023-04-29T03:57:05;34.60;;;23.70;;
40052;SDS011;25758;48.200;16.338;2023-04-29T03:59:31;34.65;;;25.30;;
40052;SDS011;25758;48.200;16.338;2023-04-29T04:01:57;34.70;;;26.77;;
40052;SDS011;25758;48.200;16.338;2023-04-29T04:04:23;32.95;;;25.23;;
40052;SDS011;25758;48.200;16.338;2023-04-29T04:06:48;31.55;;;24.50;;
40052;SDS011;25758;48.200;16.338;2023-04-29T04:09:16;32.78;;;23.10;;
40052;SDS011;25758;48.200;16.338;2023-04-29T04:11:42;30.17;;;21.88;;
40052;SDS011;25758;48.200;16.338;2023-04-29T04:14:08;28.65;;;21.88;;
40052;SDS011;25758;48.200;16.338;2023-04-29T04:16:34;26.13;;;21.17;;
40052;SDS011;25758;48.200;16.338;2023-04-29T04:19:00;28.35;;;21.45;;
40052;SDS011;25758;48.200;16.338;2023-04-29T04:21:26;32.22;;;23.70;;
40052;SDS011;25758;48.200;16.338;2023-04-29T04:23:51;28.25;;;23.48;;
40052;SDS011;25758;48.200;16.338;2023-04-29T04:26:17;32.92;;;23.08;;
40052;SDS011;25758;48.200;16.338;2023-04-29T04:28:44;28.95;;;21.35;;
40052;SDS011;25758;48.200;16.338;2023-04-29T04:31:11;27.98;;;21.08;;
40052;SDS011;25758;48.200;16.338;2023-04-29T04:33:40;26.67;;;20.95;;
40052;SDS011;25758;48.200;16.338;2023-04-29T04:36:06;25.63;;;19.42;;
40052;SDS011;25758;48.200;16.338;2023-04-29T04:38:32;24.10;;;18.92;;
40052;SDS011;25758;48.200;16.338;2023-04-29T04:40:58;25.75;;;19.95;;
40052;SDS011;25758;48.200;16.338;2023-04-29T04:43:24;25.83;;;19.65;;
40052;SDS011;25758;48.200;16.338;2023-04-29T04:45:49;22.40;;;18.70;;
40052;SDS011;25758;48.200;16.338;2023-04-29T04:48:15;23.08;;;16.92;;
40052;SDS011;25758;48.200;16.338;2023-04-29T04:50:41;22.30;;;17.10;;
40052;SDS011;25758;48.200;16.338;2023-04-29T04:53:07;22.08;;;16.00;;
40052;SDS011;25758;48.200;16.338;2023-04-29T04:55:33;18.38;;;15.25;;
40052;SDS011;25758;48.200;16.338;2023-04-29T04:57:58;23.02;;;16.73;;
40052;SDS011;25758;48.200;16.338;2023-04-29T05:00:24;18.73;;;15.48;;
40052;SDS011;25758;48.200;16.338;2023-04-29T05:02:50;21.10;;;15.07;;
40052;SDS011;25758;48.200;16.338;2023-04-29T05:05:15;21.13;;;15.18;;
40052;SDS011;25758;48.200;16.338;2023-04-29T05:07:41;19.30;;;15.40;;
40052;SDS011;25758;48.200;16.338;2023-04-29T05:10:08;19.48;;;15.20;;
40052;SDS011;25758;48.200;16.338;2023-04-29T05:12:34;20.33;;;15.30;;
40052;SDS011;25758;48.200;16.338;2023-04-29T05:15:00;17.92;;;14.68;;
40052;SDS011;25758;48.200;16.338;2023-04-29T05:17:26;16.40;;;13.25;;
40052;SDS011;25758;48.200;16.338;2023-04-29T05:19:52;16.85;;;12.98;;
40052;SDS011;25758;48.200;16.338;2023-04-29T05:22:18;17.65;;;12.77;;
40052;SDS011;25758;48.200;16.338;2023-04-29T05:24:43;17.02;;;12.85;;
40052;SDS011;25758;48.200;16.338;2023-04-29T05:27:09;14.95;;;11.50;;
40052;SDS011;25758;48.200;16.338;2023-04-29T05:29:34;15.90;;;12.50;;
40052;SDS011;25758;48.200;16.338;2023-04-29T05:32:00;15.65;;;12.27;;
40052;SDS011;25758;48.200;16.338;2023-04-29T05:34:26;17.38;;;12.80;;
40052;SDS011;25758;48.200;16.338;2023-04-29T05:36:52;15.05;;;12.40;;
40052;SDS011;25758;48.200;16.338;2023-04-29T05:39:17;13.63;;;11.25;;
40052;SDS011;25758;48.200;16.338;2023-04-29T05:41:43;11.05;;;9.00;;
40052;SDS011;25758;48.200;16.338;2023-04-29T05:44:09;16.30;;;10.60;;
40052;SDS011;25758;48.200;16.338;2023-04-29T05:46:35;15.00;;;11.30;;
40052;SDS011;25758;48.200;16.338;2023-04-29T05:49:01;16.75;;;12.07;;
40052;SDS011;25758;48.200;16.338;2023-04-29T05:51:26;19.42;;;14.70;;
40052;SDS011;25758;48.200;16.338;2023-04-29T05:53:52;17.92;;;14.93;;
40052;SDS011;25758;48.200;16.338;2023-04-29T05:56:18;19.42;;;15.30;;
40052;SDS011;25758;48.200;16.338;2023-04-29T05:58:44;20.00;;;15.90;;
40052;SDS011;25758;48.200;16.338;2023-04-29T06:01:10;20.00;;;15.95;;
40052;SDS011;25758;48.200;16.338;2023-04-29T06:03:36;21.40;;;16.73;;
40052;SDS011;25758;48.200;16.338;2023-04-29T06:06:01;24.63;;;17.92;;
40052;SDS011;25758;48.200;16.338;2023-04-29T06:08:27;21.35;;;16.23;;
40052;SDS011;25758;48.200;16.338;2023-04-29T06:10:53;19.58;;;15.52;;
40052;SDS011;25758;48.200;16.338;2023-04-29T06:13:19;22.10;;;15.43;;
40052;SDS011;25758;48.200;16.338;2023-04-29T06:15:45;20.85;;;15.30;;
40052;SDS011;25758;48.200;16.338;2023-04-29T06:18:11;27.38;;;19.05;;
40052;SDS011;25758;48.200;16.338;2023-04-29T06:20:36;22.52;;;16.98;;
40052;SDS011;25758;48.200;16.338;2023-04-29T06:23:02;21.25;;;16.23;;
40052;SDS011;25758;48.200;16.338;2023-04-29T06:25:29;19.98;;;16.23;;
40052;SDS011;25758;48.200;16.338;2023-04-29T06:27:55;18.70;;;14.10;;
40052;SDS011;25758;48.200;16.338;2023-04-29T06:30:21;16.02;;;12.43;;
40052;SDS011;25758;48.200;16.338;2023-04-29T06:32:47;15.45;;;12.52;;
40052;SDS011;25758;48.200;16.338;2023-04-29T06:35:13;14.85;;;12.00;;
40052;SDS011;25758;48.200;16.338;2023-04-29T06:37:38;12.32;;;10.10;;
40052;SDS011;25758;48.200;16.338;2023-04-29T06:40:05;13.73;;;11.07;;
40052;SDS011;25758;48.200;16.338;2023-04-29T06:42:31;16.25;;;11.57;;
40052;SDS011;25758;48.200;16.338;2023-04-29T06:44:56;12.35;;;9.57;;
40052;SDS011;25758;48.200;16.338;2023-04-29T06:47:22;16.70;;;11.18;;
40052;SDS011;25758;48.200;16.338;2023-04-29T06:49:48;13.65;;;9.00;;
40052;SDS011;25758;48.200;16.338;2023-04-29T06:52:13;13.48;;;9.63;;
40052;SDS011;25758;48.200;16.338;2023-04-29T06:54:39;13.00;;;10.63;;
40052;SDS011;25758;48.200;16.338;2023-04-29T06:57:05;13.65;;;11.00;;
40052;SDS011;25758;48.200;16.338;2023-04-29T06:59:31;12.93;;;11.38;;
40052;SDS011;25758;48.200;16.338;2023-04-29T07:01:56;13.02;;;10.95;;
40052;SDS011;25758;48.200;16.338;2023-04-29T07:04:22;11.43;;;10.23;;
40052;SDS011;25758;48.200;16.338;2023-04-29T07:06:48;13.40;;;11.23;;
40052;SDS011;25758;48.200;16.338;2023-04-29T07:09:14;11.82;;;9.65;;
40052;SDS011;25758;48.200;16.338;2023-04-29T07:11:40;18.55;;;11.65;;
40052;SDS011;25758;48.200;16.338;2023-04-29T07:14:06;12.43;;;9.57;;
40052;SDS011;25758;48.200;16.338;2023-04-29T07:16:32;12.13;;;9.82;;
40052;SDS011;25758;48.200;16.338;2023-04-29T07:18:57;18.88;;;10.02;;
40052;SDS011;25758;48.200;16.338;2023-04-29T07:21:23;14.60;;;10.88;;
40052;SDS011;25758;48.200;16.338;2023-04-29T07:23:49;15.73;;;11.18;;
40052;SDS011;25758;48.200;16.338;2023-04-29T07:26:15;11.95;;;9.75;;
40052;SDS011;25758;48.200;16.338;2023-04-29T07:28:42;14.10;;;10.38;;
40052;SDS011;25758;48.200;16.338;2023-04-29T07:31:09;13.38;;;9.68;;
40052;SDS011;25758;48.200;16.338;2023-04-29T07:33:36;15.73;;;10.48;;
40052;SDS011;25758;48.200;16.338;2023-04-29T07:36:02;13.43;;;9.43;;
40052;SDS011;25758;48.200;16.338;2023-04-29T07:38:29;10.00;;;8.07;;
40052;SDS011;25758;48.200;16.338;2023-04-29T07:40:54;7.93;;;6.85;;
40052;SDS011;25758;48.200;16.338;2023-04-29T07:43:20;9.57;;;7.90;;
40052;SDS011;25758;48.200;16.338;2023-04-29T07:45:46;8.13;;;6.70;;
40052;SDS011;25758;48.200;16.338;2023-04-29T07:48:12;7.05;;;5.95;;
40052;SDS011;25758;48.200;16.338;2023-04-29T07:50:37;7.85;;;6.22;;
40052;SDS011;25758;48.200;16.338;2023-04-29T07:53:03;10.27;;;6.10;;
40052;SDS011;25758;48.200;16.338;2023-04-29T07:55:29;11.75;;;5.82;;
40052;SDS011;25758;48.200;16.338;2023-04-29T07:57:56;7.70;;;5.70;;
40052;SDS011;25758;48.200;16.338;2023-04-29T08:00:22;5.70;;;4.15;;
40052;SDS011;25758;48.200;16.338;2023-04-29T08:02:51;4.78;;;3.65;;
40052;SDS011;25758;48.200;16.338;2023-04-29T08:05:17;6.43;;;4.82;;
40052;SDS011;25758;48.200;16.338;2023-04-29T08:07:45;8.15;;;5.88;;
40052;SDS011;25758;48.200;16.338;2023-04-29T08:10:11;11.18;;;8.38;;
40052;SDS011;25758;48.200;16.338;2023-04-29T08:12:36;7.78;;;5.22;;
40052;SDS011;25758;48.200;16.338;2023-04-29T08:15:02;5.40;;;4.00;;
40052;SDS011;25758;48.200;16.338;2023-04-29T08:17:29;6.75;;;4.15;;
40052;SDS011;25758;48.200;16.338;2023-04-29T08:19:54;5.63;;;4.10;;
40052;SDS011;25758;48.200;16.338;2023-04-29T08:22:20;4.63;;;3.97;;
40052;SDS011;25758;48.200;16.338;2023-04-29T08:24:46;5.55;;;3.60;;
40052;SDS011;25758;48.200;16.338;2023-04-29T08:27:12;5.07;;;3.30;;
40052;SDS011;25758;48.200;16.338;2023-04-29T08:29:39;9.18;;;3.22;;
40052;SDS011;25758;48.200;16.338;2023-04-29T08:32:05;4.85;;;2.65;;
40052;SDS011;25758;48.200;16.338;2023-04-29T08:34:31;2.78;;;2.00;;
40052;SDS011;25758;48.200;16.338;2023-04-29T08:36:58;3.50;;;1.65;;
40052;SDS011;25758;48.200;16.338;2023-04-29T08:39:23;7.18;;;4.30;;
40052;SDS011;25758;48.200;16.338;2023-04-29T08:41:50;4.40;;;2.95;;
40052;SDS011;25758;48.200;16.338;2023-04-29T08:44:19;30.02;;;3.95;;
40052;SDS011;25758;48.200;16.338;2023-04-29T08:46:45;8.27;;;3.83;;
40052;SDS011;25758;48.200;16.338;2023-04-29T08:49:12;3.33;;;2.15;;
40052;SDS011;25758;48.200;16.338;2023-04-29T08:51:38;5.85;;;2.30;;
40052;SDS011;25758;48.200;16.338;2023-04-29T08:54:04;5.25;;;2.50;;
40052;SDS011;25758;48.200;16.338;2023-04-29T08:56:31;4.32;;;2.78;;
40052;SDS011;25758;48.200;16.338;2023-04-29T08:58:57;4.75;;;2.75;;
40052;SDS011;25758;48.200;16.338;2023-04-29T09:01:28;3.95;;;2.47;;
40052;SDS011;25758;48.200;16.338;2023-04-29T09:07:05;3.28;;;2.72;;
40052;SDS011;25758;48.200;16.338;2023-04-29T09:09:31;11.30;;;3.00;;
40052;SDS011;25758;48.200;16.338;2023-04-29T09:11:58;3.83;;;3.13;;
40052;SDS011;25758;48.200;16.338;2023-04-29T09:14:23;6.53;;;2.83;;
40052;SDS011;25758;48.200;16.338;2023-04-29T09:16:50;3.35;;;2.90;;
40052;SDS011;25758;48.200;16.338;2023-04-29T09:19:32;2.15;;;1.48;;
40052;SDS011;25758;48.200;16.338;2023-04-29T09:21:59;2.17;;;1.02;;
40052;SDS011;25758;48.200;16.338;2023-04-29T09:24:26;2.05;;;0.65;;
40052;SDS011;25758;48.200;16.338;2023-04-29T09:26:53;1.58;;;0.40;;
40052;SDS011;25758;48.200;16.338;2023-04-29T09:29:19;1.20;;;0.38;;
40052;SDS011;25758;48.200;16.338;2023-04-29T09:31:45;2.10;;;1.23;;
40052;SDS011;25758;48.200;16.338;2023-04-29T09:34:11;3.83;;;2.72;;
40052;SDS011;25758;48.200;16.338;2023-04-29T09:39:14;6.28;;;4.15;;
40052;SDS011;25758;48.200;16.338;2023-04-29T09:44:19;2.75;;;1.60;;
40052;SDS011;25758;48.200;16.338;2023-04-29T09:46:59;3.67;;;0.90;;
40052;SDS011;25758;48.200;16.338;2023-04-29T09:51:55;2.20;;;1.30;;
40052;SDS011;25758;48.200;16.338;2023-04-29T09:54:22;2.10;;;0.70;;
40052;SDS011;25758;48.200;16.338;2023-04-29T09:56:50;1.38;;;0.63;;
40052;SDS011;25758;48.200;16.338;2023-04-29T09:59:20;1.23;;;0.20;;
40052;SDS011;25758;48.200;16.338;2023-04-29T10:01:47;7.40;;;0.30;;
40052;SDS011;25758;48.200;16.338;2023-04-29T10:04:14;0.77;;;0.20;;
40052;SDS011;25758;48.200;16.338;2023-04-29T10:06:41;2.08;;;0.90;;
40052;SDS011;25758;48.200;16.338;2023-04-29T10:09:21;1.75;;;0.70;;
40052;SDS011;25758;48.200;16.338;2023-04-29T10:11:49;1.75;;;0.30;;
40052;SDS011;25758;48.200;16.338;2023-04-29T10:14:17;0.75;;;0.20;;
40052;SDS011;25758;48.200;16.338;2023-04-29T10:19:34;0.52;;;0.20;;
40052;SDS011;25758;48.200;16.338;2023-04-29T10:22:07;0.50;;;0.15;;
40052;SDS011;25758;48.200;16.338;2023-04-29T10:24:36;2.92;;;0.60;;
40052;SDS011;25758;48.200;16.338;2023-04-29T10:27:05;1.00;;;0.20;;
40052;SDS011;25758;48.200;16.338;2023-04-29T10:29:40;1.95;;;0.20;;
40052;SDS011;25758;48.200;16.338;2023-04-29T10:32:08;0.65;;;0.20;;
40052;SDS011;25758;48.200;16.338;2023-04-29T10:34:37;0.65;;;0.20;;
40052;SDS011;25758;48.200;16.338;2023-04-29T10:37:09;4.28;;;0.20;;
40052;SDS011;25758;48.200;16.338;2023-04-29T10:39:41;1.00;;;0.20;;
40052;SDS011;25758;48.200;16.338;2023-04-29T10:42:25;5.97;;;0.50;;
40052;SDS011;25758;48.200;16.338;2023-04-29T10:45:17;2.78;;;0.22;;
40052;SDS011;25758;48.200;16.338;2023-04-29T10:50:30;2.70;;;1.60;;
40052;SDS011;25758;48.200;16.338;2023-04-29T10:53:00;6.32;;;2.83;;
40052;SDS011;25758;48.200;16.338;2023-04-29T10:55:26;4.75;;;3.15;;
40052;SDS011;25758;48.200;16.338;2023-04-29T10:57:52;4.60;;;3.50;;
40052;SDS011;25758;48.200;16.338;2023-04-29T11:00:30;5.30;;;3.90;;
40052;SDS011;25758;48.200;16.338;2023-04-29T11:02:59;37.65;;;24.85;;
40052;SDS011;25758;48.200;16.338;2023-04-29T11:05:30;85.55;;;50.50;;
40052;SDS011;25758;48.200;16.338;2023-04-29T11:08:09;11.65;;;7.18;;
40052;SDS011;25758;48.200;16.338;2023-04-29T11:10:51;6.82;;;4.63;;
40052;SDS011;25758;48.200;16.338;2023-04-29T11:13:25;5.93;;;4.30;;
40052;SDS011;25758;48.200;16.338;2023-04-29T11:18:17;7.72;;;5.38;;
40052;SDS011;25758;48.200;16.338;2023-04-29T11:23:37;7.30;;;5.35;;
40052;SDS011;25758;48.200;16.338;2023-04-29T11:26:05;5.47;;;4.60;;
40052;SDS011;25758;48.200;16.338;2023-04-29T11:28:31;5.95;;;4.30;;
40052;SDS011;25758;48.200;16.338;2023-04-29T11:30:57;8.23;;;5.53;;
40052;SDS011;25758;48.200;16.338;2023-04-29T11:33:23;5.15;;;3.72;;
40052;SDS011;25758;48.200;16.338;2023-04-29T11:35:51;4.10;;;3.38;;
40052;SDS011;25758;48.200;16.338;2023-04-29T11:38:17;6.15;;;4.68;;
40052;SDS011;25758;48.200;16.338;2023-04-29T11:40:47;8.93;;;4.90;;
40052;SDS011;25758;48.200;16.338;2023-04-29T11:43:17;7.90;;;5.35;;
40052;SDS011;25758;48.200;16.338;2023-04-29T11:45:47;8.20;;;5.93;;
40052;SDS011;25758;48.200;16.338;2023-04-29T11:48:23;8.43;;;5.97;;
40052;SDS011;25758;48.200;16.338;2023-04-29T11:50:54;7.13;;;5.28;;
40052;SDS011;25758;48.200;16.338;2023-04-29T11:53:23;4.65;;;4.22;;
40052;SDS011;25758;48.200;16.338;2023-04-29T11:55:52;7.45;;;4.93;;
40052;SDS011;25758;48.200;16.338;2023-04-29T11:58:19;5.68;;;4.32;;
40052;SDS011;25758;48.200;16.338;2023-04-29T12:00:46;9.70;;;6.03;;
40052;SDS011;25758;48.200;16.338;2023-04-29T12:03:15;10.32;;;6.13;;
40052;SDS011;25758;48.200;16.338;2023-04-29T12:05:50;8.18;;;6.13;;
40052;SDS011;25758;48.200;16.338;2023-04-29T12:08:20;8.63;;;7.50;;
40052;SDS011;25758;48.200;16.338;2023-04-29T12:10:46;8.10;;;6.88;;
40052;SDS011;25758;48.200;16.338;2023-04-29T12:13:14;8.07;;;6.43;;
40052;SDS011;25758;48.200;16.338;2023-04-29T12:15:44;8.90;;;7.10;;
40052;SDS011;25758;48.200;16.338;2023-04-29T12:18:11;13.00;;;7.28;;
40052;SDS011;25758;48.200;16.338;2023-04-29T12:20:38;10.57;;;6.05;;
40052;SDS011;25758;48.200;16.338;2023-04-29T12:23:13;9.77;;;6.78;;
40052;SDS011;25758;48.200;16.338;2023-04-29T12:25:40;7.13;;;6.28;;
40052;SDS011;25758;48.200;16.338;2023-04-29T12:28:12;6.05;;;5.32;;
40052;SDS011;25758;48.200;16.338;2023-04-29T12:30:38;9.40;;;6.68;;
40052;SDS011;25758;48.200;16.338;2023-04-29T12:33:06;9.70;;;7.30;;
40052;SDS011;25758;48.200;16.338;2023-04-29T12:35:33;9.70;;;7.03;;
40052;SDS011;25758;48.200;16.338;2023-04-29T12:37:59;9.27;;;6.60;;
40052;SDS011;25758;48.200;16.338;2023-04-29T12:40:25;10.23;;;7.25;;
40052;SDS011;25758;48.200;16.338;2023-04-29T12:42:53;7.80;;;6.10;;
40052;SDS011;25758;48.200;16.338;2023-04-29T12:47:55;7.30;;;5.13;;
40052;SDS011;25758;48.200;16.338;2023-04-29T12:50:32;7.65;;;5.03;;
40052;SDS011;25758;48.200;16.338;2023-04-29T12:53:00;9.20;;;6.07;;
40052;SDS011;25758;48.200;16.338;2023-04-29T12:55:27;11.02;;;7.55;;
40052;SDS011;25758;48.200;16.338;2023-04-29T12:57:53;9.07;;;5.97;;
40052;SDS011;25758;48.200;16.338;2023-04-29T13:00:19;4.82;;;3.88;;
40052;SDS011;25758;48.200;16.338;2023-04-29T13:02:45;5.57;;;2.95;;
40052;SDS011;25758;48.200;16.338;2023-04-29T13:05:11;4.72;;;2.80;;
40052;SDS011;25758;48.200;16.338;2023-04-29T13:07:37;4.53;;;2.13;;
40052;SDS011;25758;48.200;16.338;2023-04-29T13:10:03;3.03;;;1.73;;
40052;SDS011;25758;48.200;16.338;2023-04-29T13:12:33;5.28;;;2.33;;
40052;SDS011;25758;48.200;16.338;2023-04-29T13:14:58;3.03;;;1.45;;
40052;SDS011;25758;48.200;16.338;2023-04-29T13:17:24;3.22;;;1.90;;
40052;SDS011;25758;48.200;16.338;2023-04-29T13:19:50;2.47;;;1.42;;
40052;SDS011;25758;48.200;16.338;2023-04-29T13:22:16;2.70;;;1.20;;
40052;SDS011;25758;48.200;16.338;2023-04-29T13:24:41;2.33;;;1.13;;
40052;SDS011;25758;48.200;16.338;2023-04-29T13:27:07;4.50;;;2.25;;
40052;SDS011;25758;48.200;16.338;2023-04-29T13:29:33;3.40;;;2.28;;
40052;SDS011;25758;48.200;16.338;2023-04-29T13:31:58;4.05;;;2.10;;
40052;SDS011;25758;48.200;16.338;2023-04-29T13:34:24;20.60;;;1.75;;
40052;SDS011;25758;48.200;16.338;2023-04-29T13:36:50;1.95;;;0.70;;
40052;SDS011;25758;48.200;16.338;2023-04-29T13:39:15;1.42;;;0.52;;
40052;SDS011;25758;48.200;16.338;2023-04-29T13:41:41;1.00;;;0.40;;
40052;SDS011;25758;48.200;16.338;2023-04-29T13:44:07;1.52;;;0.45;;
40052;SDS011;25758;48.200;16.338;2023-04-29T13:46:32;2.30;;;0.50;;
40052;SDS011;25758;48.200;16.338;2023-04-29T13:48:58;5.18;;;0.77;;
40052;SDS011;25758;48.200;16.338;2023-04-29T13:51:24;3.00;;;0.70;;
40052;SDS011;25758;48.200;16.338;2023-04-29T13:53:50;1.73;;;0.50;;
40052;SDS011;25758;48.200;16.338;2023-04-29T13:56:15;3.22;;;0.77;;
40052;SDS011;25758;48.200;16.338;2023-04-29T13:58:41;1.85;;;0.50;;
40052;SDS011;25758;48.200;16.338;2023-04-29T14:01:07;1.63;;;0.47;;
40052;SDS011;25758;48.200;16.338;2023-04-29T14:03:33;1.33;;;0.68;;
40052;SDS011;25758;48.200;16.338;2023-04-29T14:05:58;2.92;;;0.55;;
40052;SDS011;25758;48.200;16.338;2023-04-29T14:08:25;1.75;;;0.82;;
40052;SDS011;25758;48.200;16.338;2023-04-29T14:10:51;1.95;;;0.80;;
40052;SDS011;25758;48.200;16.338;2023-04-29T14:13:16;1.38;;;0.80;;
40052;SDS011;25758;48.200;16.338;2023-04-29T14:15:42;3.50;;;1.10;;
40052;SDS011;25758;48.200;16.338;2023-04-29T14:18:08;1.40;;;0.57;;
40052;SDS011;25758;48.200;16.338;2023-04-29T14:20:35;2.05;;;1.00;;
40052;SDS011;25758;48.200;16.338;2023-04-29T14:23:01;2.65;;;1.25;;
40052;SDS011;25758;48.200;16.338;2023-04-29T14:25:27;2.45;;;1.20;;
40052;SDS011;25758;48.200;16.338;2023-04-29T14:27:52;2.28;;;1.50;;
40052;SDS011;25758;48.200;16.338;2023-04-29T14:30:18;4.18;;;1.17;;
40052;SDS011;25758;48.200;16.338;2023-04-29T14:32:43;4.00;;;1.15;;
40052;SDS011;25758;48.200;16.338;2023-04-29T14:35:10;5.57;;;1.13;;
40052;SDS011;25758;48.200;16.338;2023-04-29T14:37:36;1.83;;;0.93;;
40052;SDS011;25758;48.200;16.338;2023-04-29T14:40:02;2.60;;;1.10;;
40052;SDS011;25758;48.200;16.338;2023-04-29T14:42:28;2.63;;;1.00;;
40052;SDS011;25758;48.200;16.338;2023-04-29T14:44:54;3.40;;;1.00;;
40052;SDS011;25758;48.200;16.338;2023-04-29T14:47:20;4.75;;;1.10;;
40052;SDS011;25758;48.200;16.338;2023-04-29T14:49:45;2.35;;;0.95;;
40052;SDS011;25758;48.200;16.338;2023-04-29T14:52:11;5.03;;;0.60;;
40052;SDS011;25758;48.200;16.338;2023-04-29T14:54:37;2.55;;;1.23;;
40052;SDS011;25758;48.200;16.338;2023-04-29T14:57:02;1.63;;;0.80;;
40052;SDS011;25758;48.200;16.338;2023-04-29T14:59:28;4.00;;;1.40;;